sensor_id;sensor_type;location;lat;lon;timestamp;pressure;altitude;pressure_sealevel;temperature;humidity
64683;BME280;51107;47.652;19.016;2023-12-04T00:00:01;100794.59;;;-4.49;99.15
64683;BME280;51107;47.652;19.016;2023-12-04T00:02:38;100804.09;;;-4.58;99.84
64683;BME280;51107;47.652;19.016;2023-12-04T00:05:07;100785.59;;;-4.67;100.00
64683;BME280;51107;47.652;19.016;2023-12-04T00:07:36;100793.37;;;-4.74;100.00
64683;BME280;51107;47.652;19.016;2023-12-04T00:10:04;100787.25;;;-4.66;100.00
64683;BME280;51107;47.652;19.016;2023-12-04T00:12:33;100781.47;;;-4.72;100.00
64683;BME280;51107;47.652;19.016;2023-12-04T00:15:02;100791.00;;;-4.85;100.00
64683;BME280;51107;47.652;19.016;2023-12-04T00:17:30;100788.56;;;-4.90;100.00
64683;BME280;51107;47.652;19.016;2023-12-04T00:19:59;100792.75;;;-4.87;100.00
64683;BME280;51107;47.652;19.016;2023-12-04T00:22:27;100795.91;;;-4.74;100.00
64683;BME280;51107;47.652;19.016;2023-12-04T00:24:57;100776.56;;;-4.82;100.00
64683;BME280;51107;47.652;19.016;2023-12-04T00:27:25;100777.34;;;-4.80;100.00
64683;BME280;51107;47.652;19.016;2023-12-04T00:29:57;100771.69;;;-4.94;100.00
64683;BME280;51107;47.652;19.016;2023-12-04T00:32:25;100770.59;;;-4.79;100.00
64683;BME280;51107;47.652;19.016;2023-12-04T00:34:54;100779.06;;;-4.80;100.00
64683;BME280;51107;47.652;19.016;2023-12-04T00:37:22;100782.72;;;-4.95;100.00
64683;BME280;51107;47.652;19.016;2023-12-04T00:39:50;100769.94;;;-4.92;100.00
64683;BME280;51107;47.652;19.016;2023-12-04T00:42:19;100779.84;;;-4.78;100.00
64683;BME280;51107;47.652;19.016;2023-12-04T00:44:47;100786.94;;;-4.94;100.00
64683;BME280;51107;47.652;19.016;2023-12-04T00:47:16;100786.44;;;-5.15;100.00
64683;BME280;51107;47.652;19.016;2023-12-04T00:49:44;100778.56;;;-4.99;100.00
64683;BME280;51107;47.652;19.016;2023-12-04T00:52:12;100781.97;;;-5.02;100.00
64683;BME280;51107;47.652;19.016;2023-12-04T00:54:41;100784.69;;;-5.13;100.00
64683;BME280;51107;47.652;19.016;2023-12-04T00:57:09;100787.28;;;-5.14;100.00
64683;BME280;51107;47.652;19.016;2023-12-04T00:59:37;100788.88;;;-5.08;100.00
64683;BME280;51107;47.652;19.016;2023-12-04T01:02:07;100786.56;;;-5.22;100.00
64683;BME280;51107;47.652;19.016;2023-12-04T01:04:35;100774.47;;;-5.61;100.00
64683;BME280;51107;47.652;19.016;2023-12-04T01:07:03;100789.25;;;-5.33;100.00
64683;BME280;51107;47.652;19.016;2023-12-04T01:09:34;100788.16;;;-5.17;100.00
64683;BME280;51107;47.652;19.016;2023-12-04T01:12:04;100781.41;;;-5.18;100.00
64683;BME280;51107;47.652;19.016;2023-12-04T01:14:32;100789.41;;;-4.91;100.00
64683;BME280;51107;47.652;19.016;2023-12-04T01:17:00;100790.59;;;-5.10;100.00
64683;BME280;51107;47.652;19.016;2023-12-04T01:19:29;100789.13;;;-5.24;100.00
64683;BME280;51107;47.652;19.016;2023-12-04T01:21:58;100788.00;;;-5.07;100.00
64683;BME280;51107;47.652;19.016;2023-12-04T01:24:27;100783.63;;;-4.99;100.00
64683;BME280;51107;47.652;19.016;2023-12-04T01:26:56;100773.97;;;-4.80;100.00
64683;BME280;51107;47.652;19.016;2023-12-04T01:29:24;100782.81;;;-5.00;100.00
64683;BME280;51107;47.652;19.016;2023-12-04T01:31:52;100774.50;;;-5.09;100.00
64683;BME280;51107;47.652;19.016;2023-12-04T01:34:21;100771.69;;;-4.94;100.00
64683;BME280;51107;47.652;19.016;2023-12-04T01:36:50;100784.62;;;-5.06;100.00
64683;BME280;51107;47.652;19.016;2023-12-04T01:39:18;100782.53;;;-4.84;100.00
64683;BME280;51107;47.652;19.016;2023-12-04T01:41:46;100779.50;;;-5.05;100.00
64683;BME280;51107;47.652;19.016;2023-12-04T01:44:14;100785.84;;;-5.31;100.00
64683;BME280;51107;47.652;19.016;2023-12-04T01:46:43;100789.78;;;-5.13;100.00
64683;BME280;51107;47.652;19.016;2023-12-04T01:49:11;100778.31;;;-5.35;100.00
64683;BME280;51107;47.652;19.016;2023-12-04T01:51:40;100789.97;;;-5.25;100.00
64683;BME280;51107;47.652;19.016;2023-12-04T01:54:08;100778.81;;;-5.15;100.00
64683;BME280;51107;47.652;19.016;2023-12-04T01:56:36;100787.34;;;-5.19;100.00
64683;BME280;51107;47.652;19.016;2023-12-04T01:59:06;100800.53;;;-5.50;100.00
64683;BME280;51107;47.652;19.016;2023-12-04T02:01:35;100797.59;;;-5.25;100.00
64683;BME280;51107;47.652;19.016;2023-12-04T02:04:05;100789.50;;;-4.96;100.00
64683;BME280;51107;47.652;19.016;2023-12-04T02:06:34;100790.31;;;-4.93;100.00
64683;BME280;51107;47.652;19.016;2023-12-04T02:09:02;100786.91;;;-4.92;100.00
64683;BME280;51107;47.652;19.016;2023-12-04T02:11:31;100797.06;;;-4.92;100.00
64683;BME280;51107;47.652;19.016;2023-12-04T02:13:59;100795.78;;;-5.17;100.00
64683;BME280;51107;47.652;19.016;2023-12-04T02:16:29;100804.16;;;-5.12;100.00
64683;BME280;51107;47.652;19.016;2023-12-04T02:18:58;100799.00;;;-5.05;100.00
64683;BME280;51107;47.652;19.016;2023-12-04T02:21:26;100800.66;;;-5.04;100.00
64683;BME280;51107;47.652;19.016;2023-12-04T02:23:55;100790.44;;;-5.00;100.00
64683;BME280;51107;47.652;19.016;2023-12-04T02:26:28;100790.16;;;-4.84;100.00
64683;BME280;51107;47.652;19.016;2023-12-04T02:29:01;100801.16;;;-4.84;100.00
64683;BME280;51107;47.652;19.016;2023-12-04T02:31:34;100795.00;;;-4.70;100.00
64683;BME280;51107;47.652;19.016;2023-12-04T02:34:05;100799.28;;;-4.72;100.00
64683;BME280;51107;47.652;19.016;2023-12-04T02:36:36;100799.72;;;-4.50;98.14
64683;BME280;51107;47.652;19.016;2023-12-04T02:39:05;100800.78;;;-4.62;98.94
64683;BME280;51107;47.652;19.016;2023-12-04T02:41:34;100793.28;;;-4.68;100.00
64683;BME280;51107;47.652;19.016;2023-12-04T02:44:02;100799.06;;;-4.62;100.00
64683;BME280;51107;47.652;19.016;2023-12-04T02:46:30;100799.72;;;-4.52;98.00
64683;BME280;51107;47.652;19.016;2023-12-04T02:48:59;100802.34;;;-4.56;98.51
64683;BME280;51107;47.652;19.016;2023-12-04T02:51:27;100803.47;;;-4.71;100.00
64683;BME280;51107;47.652;19.016;2023-12-04T02:53:55;100804.19;;;-4.65;100.00
64683;BME280;51107;47.652;19.016;2023-12-04T02:56:24;100794.91;;;-4.67;99.78
64683;BME280;51107;47.652;19.016;2023-12-04T02:58:52;100785.72;;;-4.73;100.00
64683;BME280;51107;47.652;19.016;2023-12-04T03:01:20;100804.16;;;-4.63;99.72
64683;BME280;51107;47.652;19.016;2023-12-04T03:03:49;100799.09;;;-4.63;99.16
64683;BME280;51107;47.652;19.016;2023-12-04T03:06:17;100804.22;;;-4.66;97.75
64683;BME280;51107;47.652;19.016;2023-12-04T03:08:46;100803.56;;;-4.76;98.01
64683;BME280;51107;47.652;19.016;2023-12-04T03:11:14;100812.97;;;-4.81;98.93
64683;BME280;51107;47.652;19.016;2023-12-04T03:13:43;100815.59;;;-4.86;99.60
64683;BME280;51107;47.652;19.016;2023-12-04T03:16:17;100819.84;;;-4.85;99.15
64683;BME280;51107;47.652;19.016;2023-12-04T03:18:46;100817.84;;;-4.69;99.42
64683;BME280;51107;47.652;19.016;2023-12-04T03:21:15;100818.69;;;-4.70;99.23
64683;BME280;51107;47.652;19.016;2023-12-04T03:23:43;100816.03;;;-4.62;98.59
64683;BME280;51107;47.652;19.016;2023-12-04T03:26:11;100814.34;;;-4.63;98.41
64683;BME280;51107;47.652;19.016;2023-12-04T03:28:39;100813.59;;;-4.70;100.00
64683;BME280;51107;47.652;19.016;2023-12-04T03:31:08;100823.75;;;-4.67;100.00
64683;BME280;51107;47.652;19.016;2023-12-04T03:33:37;100816.25;;;-4.74;99.56
64683;BME280;51107;47.652;19.016;2023-12-04T03:36:05;100820.44;;;-4.72;100.00
64683;BME280;51107;47.652;19.016;2023-12-04T03:38:34;100815.44;;;-4.76;99.64
64683;BME280;51107;47.652;19.016;2023-12-04T03:41:02;100817.28;;;-4.86;97.92
64683;BME280;51107;47.652;19.016;2023-12-04T03:43:31;100829.34;;;-4.98;96.16
64683;BME280;51107;47.652;19.016;2023-12-04T03:45:59;100822.03;;;-5.16;95.39
64683;BME280;51107;47.652;19.016;2023-12-04T03:48:27;100826.38;;;-5.23;97.29
64683;BME280;51107;47.652;19.016;2023-12-04T03:50:56;100832.41;;;-5.30;98.15
64683;BME280;51107;47.652;19.016;2023-12-04T03:53:24;100815.72;;;-5.45;98.33
64683;BME280;51107;47.652;19.016;2023-12-04T03:55:52;100818.94;;;-5.35;100.00
64683;BME280;51107;47.652;19.016;2023-12-04T03:58:21;100835.00;;;-5.35;100.00
64683;BME280;51107;47.652;19.016;2023-12-04T04:00:49;100828.81;;;-5.76;100.00
64683;BME280;51107;47.652;19.016;2023-12-04T04:03:17;100825.53;;;-5.83;100.00
64683;BME280;51107;47.652;19.016;2023-12-04T04:05:46;100834.81;;;-5.82;100.00
64683;BME280;51107;47.652;19.016;2023-12-04T04:08:14;100824.03;;;-5.35;100.00
64683;BME280;51107;47.652;19.016;2023-12-04T04:10:42;100824.63;;;-5.21;100.00
64683;BME280;51107;47.652;19.016;2023-12-04T04:13:11;100828.09;;;-5.25;100.00
64683;BME280;51107;47.652;19.016;2023-12-04T04:15:41;100813.03;;;-5.37;100.00
64683;BME280;51107;47.652;19.016;2023-12-04T04:18:09;100818.94;;;-5.35;100.00
64683;BME280;51107;47.652;19.016;2023-12-04T04:20:38;100811.16;;;-5.24;100.00
64683;BME280;51107;47.652;19.016;2023-12-04T04:23:06;100808.56;;;-5.21;100.00
64683;BME280;51107;47.652;19.016;2023-12-04T04:25:35;100813.66;;;-5.21;100.00
64683;BME280;51107;47.652;19.016;2023-12-04T04:28:03;100818.84;;;-5.27;100.00
64683;BME280;51107;47.652;19.016;2023-12-04T04:30:31;100819.78;;;-5.35;100.00
64683;BME280;51107;47.652;19.016;2023-12-04T04:33:00;100807.16;;;-5.39;100.00
64683;BME280;51107;47.652;19.016;2023-12-04T04:35:28;100824.03;;;-5.35;99.16
64683;BME280;51107;47.652;19.016;2023-12-04T04:37:57;100821.62;;;-5.46;100.00
64683;BME280;51107;47.652;19.016;2023-12-04T04:40:26;100831.00;;;-5.51;99.92
64683;BME280;51107;47.652;19.016;2023-12-04T04:42:54;100822.75;;;-5.64;100.00
64683;BME280;51107;47.652;19.016;2023-12-04T04:45:22;100832.88;;;-5.63;100.00
64683;BME280;51107;47.652;19.016;2023-12-04T04:47:51;100818.41;;;-5.56;99.15
64683;BME280;51107;47.652;19.016;2023-12-04T04:50:19;100820.31;;;-5.73;98.45
64683;BME280;51107;47.652;19.016;2023-12-04T04:52:47;100836.56;;;-5.84;99.80
64683;BME280;51107;47.652;19.016;2023-12-04T04:55:16;100837.37;;;-5.83;100.00
64683;BME280;51107;47.652;19.016;2023-12-04T04:58:04;100828.97;;;-5.85;100.00
64683;BME280;51107;47.652;19.016;2023-12-04T05:00:33;100835.00;;;-5.95;100.00
64683;BME280;51107;47.652;19.016;2023-12-04T05:03:01;100825.69;;;-5.93;100.00
64683;BME280;51107;47.652;19.016;2023-12-04T05:05:30;100838.22;;;-5.83;100.00
64683;BME280;51107;47.652;19.016;2023-12-04T05:07:59;100850.06;;;-5.82;100.00
64683;BME280;51107;47.652;19.016;2023-12-04T05:10:27;100851.69;;;-5.77;100.00
64683;BME280;51107;47.652;19.016;2023-12-04T05:12:55;100844.06;;;-5.76;100.00
64683;BME280;51107;47.652;19.016;2023-12-04T05:15:24;100835.66;;;-5.80;100.00
64683;BME280;51107;47.652;19.016;2023-12-04T05:17:53;100840.84;;;-5.89;100.00
64683;BME280;51107;47.652;19.016;2023-12-04T05:20:21;100848.81;;;-6.15;100.00
64683;BME280;51107;47.652;19.016;2023-12-04T05:22:50;100847.97;;;-6.16;100.00
64683;BME280;51107;47.652;19.016;2023-12-04T05:25:18;100841.78;;;-6.69;100.00
64683;BME280;51107;47.652;19.016;2023-12-04T05:27:46;100843.00;;;-7.12;100.00
64683;BME280;51107;47.652;19.016;2023-12-04T05:30:17;100848.97;;;-7.24;100.00
64683;BME280;51107;47.652;19.016;2023-12-04T05:32:46;100841.31;;;-7.14;100.00
64683;BME280;51107;47.652;19.016;2023-12-04T05:35:15;100850.59;;;-7.12;100.00
64683;BME280;51107;47.652;19.016;2023-12-04T05:37:44;100842.09;;;-7.09;100.00
64683;BME280;51107;47.652;19.016;2023-12-04T05:40:13;100838.59;;;-6.90;100.00
64683;BME280;51107;47.652;19.016;2023-12-04T05:42:41;100830.88;;;-6.79;100.00
64683;BME280;51107;47.652;19.016;2023-12-04T05:45:10;100834.19;;;-6.72;100.00
64683;BME280;51107;47.652;19.016;2023-12-04T05:47:38;100840.94;;;-6.71;100.00
64683;BME280;51107;47.652;19.016;2023-12-04T05:50:07;100837.59;;;-6.73;100.00
64683;BME280;51107;47.652;19.016;2023-12-04T05:52:36;100846.81;;;-6.68;100.00
64683;BME280;51107;47.652;19.016;2023-12-04T05:55:04;100850.22;;;-6.69;100.00
64683;BME280;51107;47.652;19.016;2023-12-04T05:57:32;100833.28;;;-6.65;100.00
64683;BME280;51107;47.652;19.016;2023-12-04T06:00:01;100850.25;;;-6.76;100.00
64683;BME280;51107;47.652;19.016;2023-12-04T06:02:31;100843.63;;;-6.87;100.00
64683;BME280;51107;47.652;19.016;2023-12-04T06:05:00;100852.22;;;-7.06;100.00
64683;BME280;51107;47.652;19.016;2023-12-04T06:07:29;100854.72;;;-7.02;100.00
64683;BME280;51107;47.652;19.016;2023-12-04T06:09:57;100843.66;;;-6.91;100.00
64683;BME280;51107;47.652;19.016;2023-12-04T06:12:26;100846.91;;;-6.78;100.00
64683;BME280;51107;47.652;19.016;2023-12-04T06:14:54;100845.91;;;-6.60;100.00
64683;BME280;51107;47.652;19.016;2023-12-04T06:17:22;100834.84;;;-6.53;100.00
64683;BME280;51107;47.652;19.016;2023-12-04T06:19:51;100845.41;;;-6.98;100.00
64683;BME280;51107;47.652;19.016;2023-12-04T06:22:20;100851.25;;;-6.90;100.00
64683;BME280;51107;47.652;19.016;2023-12-04T06:24:49;100853.69;;;-6.82;100.00
64683;BME280;51107;47.652;19.016;2023-12-04T06:27:19;100842.66;;;-6.76;100.00
64683;BME280;51107;47.652;19.016;2023-12-04T06:29:48;100841.75;;;-6.68;100.00
64683;BME280;51107;47.652;19.016;2023-12-04T06:32:20;100835.72;;;-6.57;100.00
64683;BME280;51107;47.652;19.016;2023-12-04T06:34:49;100840.53;;;-6.31;100.00
64683;BME280;51107;47.652;19.016;2023-12-04T06:37:17;100858.19;;;-6.23;100.00
64683;BME280;51107;47.652;19.016;2023-12-04T06:39:48;100845.28;;;-6.02;100.00
64683;BME280;51107;47.652;19.016;2023-12-04T06:42:16;100857.91;;;-5.99;100.00
64683;BME280;51107;47.652;19.016;2023-12-04T06:44:45;100858.69;;;-5.95;100.00
64683;BME280;51107;47.652;19.016;2023-12-04T06:47:17;100859.41;;;-5.85;100.00
64683;BME280;51107;47.652;19.016;2023-12-04T06:49:46;100880.63;;;-5.89;100.00
64683;BME280;51107;47.652;19.016;2023-12-04T06:52:15;100883.72;;;-5.67;100.00
64683;BME280;51107;47.652;19.016;2023-12-04T06:54:43;100874.37;;;-5.65;100.00
64683;BME280;51107;47.652;19.016;2023-12-04T06:57:11;100872.19;;;-5.31;100.00
64683;BME280;51107;47.652;19.016;2023-12-04T06:59:43;100868.59;;;-5.16;97.40
64683;BME280;51107;47.652;19.016;2023-12-04T07:02:11;100871.78;;;-5.01;96.43
64683;BME280;51107;47.652;19.016;2023-12-04T07:04:39;100872.66;;;-5.04;96.20
64683;BME280;51107;47.652;19.016;2023-12-04T07:07:08;100871.78;;;-5.01;97.64
64683;BME280;51107;47.652;19.016;2023-12-04T07:09:36;100879.31;;;-4.97;100.00
64683;BME280;51107;47.652;19.016;2023-12-04T07:12:05;100882.38;;;-4.76;99.16
64683;BME280;51107;47.652;19.016;2023-12-04T07:14:33;100893.97;;;-4.59;97.89
64683;BME280;51107;47.652;19.016;2023-12-04T07:17:02;100883.56;;;-4.47;96.39
64683;BME280;51107;47.652;19.016;2023-12-04T07:19:30;100880.66;;;-4.27;96.09
64683;BME280;51107;47.652;19.016;2023-12-04T07:22:00;100883.75;;;-4.11;95.36
64683;BME280;51107;47.652;19.016;2023-12-04T07:24:28;100880.63;;;-3.82;97.18
64683;BME280;51107;47.652;19.016;2023-12-04T07:26:56;100881.03;;;-3.61;94.20
64683;BME280;51107;47.652;19.016;2023-12-04T07:29:25;100888.81;;;-3.67;94.44
64683;BME280;51107;47.652;19.016;2023-12-04T07:31:53;100874.34;;;-3.65;95.32
64683;BME280;51107;47.652;19.016;2023-12-04T07:34:21;100875.75;;;-3.52;94.59
64683;BME280;51107;47.652;19.016;2023-12-04T07:36:50;100885.88;;;-3.49;93.56
64683;BME280;51107;47.652;19.016;2023-12-04T07:39:18;100883.22;;;-3.43;92.37
64683;BME280;51107;47.652;19.016;2023-12-04T07:41:48;100888.34;;;-3.44;92.58
64683;BME280;51107;47.652;19.016;2023-12-04T07:44:17;100890.66;;;-3.33;92.41
64683;BME280;51107;47.652;19.016;2023-12-04T07:46:45;100890.63;;;-3.32;92.51
64683;BME280;51107;47.652;19.016;2023-12-04T07:49:14;100878.63;;;-3.28;92.47
64683;BME280;51107;47.652;19.016;2023-12-04T07:51:43;100887.19;;;-3.31;92.01
64683;BME280;51107;47.652;19.016;2023-12-04T07:54:12;100886.94;;;-3.20;93.88
64683;BME280;51107;47.652;19.016;2023-12-04T07:56:40;100891.53;;;-2.98;93.96
64683;BME280;51107;47.652;19.016;2023-12-04T07:59:08;100892.28;;;-2.93;91.04
64683;BME280;51107;47.652;19.016;2023-12-04T08:01:37;100883.63;;;-2.87;91.56
64683;BME280;51107;47.652;19.016;2023-12-04T08:04:06;100888.34;;;-2.72;93.17
64683;BME280;51107;47.652;19.016;2023-12-04T08:06:35;100898.09;;;-2.53;90.09
64683;BME280;51107;47.652;19.016;2023-12-04T08:09:03;100893.16;;;-2.60;89.81
64683;BME280;51107;47.652;19.016;2023-12-04T08:11:34;100898.53;;;-2.37;89.31
64683;BME280;51107;47.652;19.016;2023-12-04T08:14:03;100895.44;;;-2.16;90.83
64683;BME280;51107;47.652;19.016;2023-12-04T08:16:31;100898.66;;;-2.09;87.95
64683;BME280;51107;47.652;19.016;2023-12-04T08:19:00;100895.81;;;-1.98;88.76
64683;BME280;51107;47.652;19.016;2023-12-04T08:21:28;100881.25;;;-1.96;87.45
64683;BME280;51107;47.652;19.016;2023-12-04T08:23:57;100895.47;;;-1.88;87.31
64683;BME280;51107;47.652;19.016;2023-12-04T08:26:26;100889.91;;;-1.71;85.62
64683;BME280;51107;47.652;19.016;2023-12-04T08:28:55;100887.16;;;-1.64;85.44
64683;BME280;51107;47.652;19.016;2023-12-04T08:31:24;100893.97;;;-1.35;85.03
64683;BME280;51107;47.652;19.016;2023-12-04T08:33:53;100890.94;;;-1.20;84.13
64683;BME280;51107;47.652;19.016;2023-12-04T08:36:21;100893.50;;;-1.20;83.82
64683;BME280;51107;47.652;19.016;2023-12-04T08:38:49;100890.06;;;-0.92;86.65
64683;BME280;51107;47.652;19.016;2023-12-04T08:41:18;100896.59;;;-0.56;81.46
64683;BME280;51107;47.652;19.016;2023-12-04T08:43:46;100905.91;;;-0.54;81.47
64683;BME280;51107;47.652;19.016;2023-12-04T08:46:15;100897.81;;;-0.41;80.85
64683;BME280;51107;47.652;19.016;2023-12-04T08:48:43;100897.75;;;-0.40;79.15
64683;BME280;51107;47.652;19.016;2023-12-04T08:51:16;100887.38;;;-0.37;81.02
64683;BME280;51107;47.652;19.016;2023-12-04T08:53:45;100887.22;;;-0.32;79.83
64683;BME280;51107;47.652;19.016;2023-12-04T08:56:13;100890.78;;;-0.11;82.20
64683;BME280;51107;47.652;19.016;2023-12-04T08:58:49;100885.88;;;0.30;81.72
64683;BME280;51107;47.652;19.016;2023-12-04T09:01:18;100895.28;;;0.30;79.11
64683;BME280;51107;47.652;19.016;2023-12-04T09:03:47;100879.12;;;0.28;80.25
64683;BME280;51107;47.652;19.016;2023-12-04T09:06:15;100888.31;;;0.33;77.44
64683;BME280;51107;47.652;19.016;2023-12-04T09:08:44;100890.47;;;0.44;74.51
64683;BME280;51107;47.652;19.016;2023-12-04T09:11:24;100902.09;;;0.75;76.74
64683;BME280;51107;47.652;19.016;2023-12-04T09:13:54;100897.56;;;1.04;75.44
64683;BME280;51107;47.652;19.016;2023-12-04T09:16:23;100896.78;;;0.80;78.30
64683;BME280;51107;47.652;19.016;2023-12-04T09:18:51;100896.78;;;0.80;75.54
64683;BME280;51107;47.652;19.016;2023-12-04T09:21:21;100895.69;;;0.87;76.85
64683;BME280;51107;47.652;19.016;2023-12-04T09:23:50;100893.81;;;0.91;73.84
64683;BME280;51107;47.652;19.016;2023-12-04T09:26:18;100893.09;;;0.87;75.34
64683;BME280;51107;47.652;19.016;2023-12-04T09:28:47;100902.91;;;1.20;75.72
64683;BME280;51107;47.652;19.016;2023-12-04T09:31:16;100895.16;;;1.42;76.15
64683;BME280;51107;47.652;19.016;2023-12-04T09:33:46;100889.97;;;1.64;71.34
64683;BME280;51107;47.652;19.016;2023-12-04T09:36:15;100883.66;;;1.72;73.10
64683;BME280;51107;47.652;19.016;2023-12-04T09:38:44;100870.13;;;1.87;72.44
64683;BME280;51107;47.652;19.016;2023-12-04T09:41:14;100866.66;;;1.88;71.67
64683;BME280;51107;47.652;19.016;2023-12-04T09:43:44;100872.84;;;1.84;72.94
64683;BME280;51107;47.652;19.016;2023-12-04T09:46:13;100867.72;;;1.63;74.47
64683;BME280;51107;47.652;19.016;2023-12-04T09:48:43;100864.41;;;1.80;72.81
64683;BME280;51107;47.652;19.016;2023-12-04T09:51:12;100856.38;;;1.88;74.88
64683;BME280;51107;47.652;19.016;2023-12-04T09:53:41;100851.66;;;1.98;74.53
64683;BME280;51107;47.652;19.016;2023-12-04T09:56:10;100851.25;;;1.88;72.77
64683;BME280;51107;47.652;19.016;2023-12-04T09:58:40;100847.69;;;1.72;71.59
64683;BME280;51107;47.652;19.016;2023-12-04T10:01:08;100855.78;;;1.42;76.39
64683;BME280;51107;47.652;19.016;2023-12-04T10:03:40;100840.63;;;1.77;75.57
64683;BME280;51107;47.652;19.016;2023-12-04T10:06:15;100844.63;;;1.63;74.81
64683;BME280;51107;47.652;19.016;2023-12-04T10:08:45;100835.41;;;1.78;75.29
64683;BME280;51107;47.652;19.016;2023-12-04T10:11:13;100833.22;;;1.69;74.08
64683;BME280;51107;47.652;19.016;2023-12-04T10:13:42;100817.81;;;1.69;75.41
64683;BME280;51107;47.652;19.016;2023-12-04T10:16:34;100812.63;;;1.70;73.04
64683;BME280;51107;47.652;19.016;2023-12-04T10:19:25;100811.38;;;1.60;76.14
64683;BME280;51107;47.652;19.016;2023-12-04T10:21:59;100806.59;;;1.72;75.94
64683;BME280;51107;47.652;19.016;2023-12-04T10:24:32;100807.50;;;1.50;71.20
64683;BME280;51107;47.652;19.016;2023-12-04T10:27:06;100795.00;;;1.82;71.96
64683;BME280;51107;47.652;19.016;2023-12-04T10:29:48;100801.22;;;1.76;68.36
64683;BME280;51107;47.652;19.016;2023-12-04T10:32:21;100792.28;;;1.66;68.44
64683;BME280;51107;47.652;19.016;2023-12-04T10:34:50;100789.34;;;1.93;67.51
64683;BME280;51107;47.652;19.016;2023-12-04T10:37:19;100781.03;;;1.87;64.84
64683;BME280;51107;47.652;19.016;2023-12-04T10:39:51;100785.41;;;2.04;64.94
64683;BME280;51107;47.652;19.016;2023-12-04T10:42:27;100784.38;;;1.90;64.68
64683;BME280;51107;47.652;19.016;2023-12-04T10:44:57;100780.91;;;2.10;63.54
64683;BME280;51107;47.652;19.016;2023-12-04T10:47:30;100767.12;;;2.11;67.50
64683;BME280;51107;47.652;19.016;2023-12-04T10:50:02;100771.94;;;1.61;64.36
64683;BME280;51107;47.652;19.016;2023-12-04T10:52:31;100764.91;;;1.65;63.54
64683;BME280;51107;47.652;19.016;2023-12-04T10:55:00;100767.41;;;1.66;65.13
64683;BME280;51107;47.652;19.016;2023-12-04T10:57:38;100755.91;;;1.94;66.21
64683;BME280;51107;47.652;19.016;2023-12-04T11:00:08;100751.75;;;1.73;64.72
64683;BME280;51107;47.652;19.016;2023-12-04T11:02:42;100747.28;;;1.38;63.74
64683;BME280;51107;47.652;19.016;2023-12-04T11:05:16;100754.06;;;1.39;64.58
64683;BME280;51107;47.652;19.016;2023-12-04T11:07:57;100746.13;;;1.64;66.28
64683;BME280;51107;47.652;19.016;2023-12-04T11:10:48;100752.47;;;1.56;64.46
64683;BME280;51107;47.652;19.016;2023-12-04T11:13:26;100761.53;;;1.25;63.30
64683;BME280;51107;47.652;19.016;2023-12-04T11:16:01;100750.78;;;1.16;65.14
64683;BME280;51107;47.652;19.016;2023-12-04T11:18:33;100747.16;;;1.60;65.27
64683;BME280;51107;47.652;19.016;2023-12-04T11:21:09;100741.78;;;1.27;64.30
64683;BME280;51107;47.652;19.016;2023-12-04T11:23:39;100736.34;;;1.14;63.53
64683;BME280;51107;47.652;19.016;2023-12-04T11:26:08;100734.56;;;1.16;63.73
64683;BME280;51107;47.652;19.016;2023-12-04T11:28:38;100729.13;;;1.22;63.94
64683;BME280;51107;47.652;19.016;2023-12-04T11:31:07;100730.84;;;1.02;64.44
64683;BME280;51107;47.652;19.016;2023-12-04T11:33:36;100720.44;;;0.85;65.03
64683;BME280;51107;47.652;19.016;2023-12-04T11:36:09;100723.66;;;0.70;65.60
64683;BME280;51107;47.652;19.016;2023-12-04T11:38:46;100712.44;;;0.72;65.84
64683;BME280;51107;47.652;19.016;2023-12-04T11:41:23;100710.84;;;0.90;66.50
64683;BME280;51107;47.652;19.016;2023-12-04T11:43:56;100709.53;;;0.80;66.08
64683;BME280;51107;47.652;19.016;2023-12-04T11:46:27;100707.69;;;0.63;65.89
64683;BME280;51107;47.652;19.016;2023-12-04T11:49:29;100695.50;;;0.68;67.45
64683;BME280;51107;47.652;19.016;2023-12-04T11:52:03;100707.38;;;0.50;67.29
64683;BME280;51107;47.652;19.016;2023-12-04T11:54:55;100690.12;;;0.54;68.04
64683;BME280;51107;47.652;19.016;2023-12-04T11:57:23;100694.69;;;0.47;67.81
64683;BME280;51107;47.652;19.016;2023-12-04T12:05:43;100695.19;;;0.35;68.73
64683;BME280;51107;47.652;19.016;2023-12-04T12:08:12;100688.37;;;0.33;68.93
64683;BME280;51107;47.652;19.016;2023-12-04T12:10:40;100689.06;;;0.37;68.77
64683;BME280;51107;47.652;19.016;2023-12-04T12:13:10;100688.25;;;0.37;68.93
64683;BME280;51107;47.652;19.016;2023-12-04T12:15:38;100672.47;;;0.25;69.20
64683;BME280;51107;47.652;19.016;2023-12-04T12:18:07;100676.31;;;0.36;70.92
64683;BME280;51107;47.652;19.016;2023-12-04T12:20:36;100672.81;;;0.38;69.13
64683;BME280;51107;47.652;19.016;2023-12-04T12:23:05;100658.00;;;0.45;69.00
64683;BME280;51107;47.652;19.016;2023-12-04T12:25:35;100651.56;;;0.36;69.03
64683;BME280;51107;47.652;19.016;2023-12-04T12:28:03;100648.56;;;0.45;69.30
64683;BME280;51107;47.652;19.016;2023-12-04T12:30:32;100637.13;;;0.33;68.35
64683;BME280;51107;47.652;19.016;2023-12-04T12:33:00;100641.88;;;0.22;68.46
64683;BME280;51107;47.652;19.016;2023-12-04T12:35:29;100638.53;;;0.20;68.85
64683;BME280;51107;47.652;19.016;2023-12-04T12:37:58;100638.28;;;0.26;69.44
64683;BME280;51107;47.652;19.016;2023-12-04T12:40:30;100631.88;;;0.37;69.91
64683;BME280;51107;47.652;19.016;2023-12-04T12:43:06;100620.50;;;0.22;69.54
64683;BME280;51107;47.652;19.016;2023-12-04T12:45:40;100622.50;;;0.15;69.66
64683;BME280;51107;47.652;19.016;2023-12-04T12:48:16;100626.66;;;0.17;69.32
64683;BME280;51107;47.652;19.016;2023-12-04T12:50:46;100626.78;;;0.14;70.11
64683;BME280;51107;47.652;19.016;2023-12-04T12:53:17;100625.62;;;0.22;71.11
64683;BME280;51107;47.652;19.016;2023-12-04T12:55:47;100618.84;;;0.21;70.85